createdAt,value
2019-02-27T00:00:31.848Z,79.92
2019-02-27T00:02:59.497Z,78.78
2019-02-27T00:05:27.157Z,78.23
2019-02-27T00:07:55.025Z,77.12
2019-02-27T00:10:22.872Z,78.49
2019-02-27T00:12:52.025Z,80.04
2019-02-27T00:15:20.161Z,79.75
2019-02-27T00:17:51.083Z,79.21
2019-02-27T00:20:17.187Z,79.25
2019-02-27T00:22:44.844Z,79.53
2019-02-27T00:25:12.575Z,78.13
2019-02-27T00:27:40.243Z,77.39
2019-02-27T00:30:07.901Z,78.52
2019-02-27T00:32:35.565Z,78.35
2019-02-27T00:35:06.166Z,79.75
2019-02-27T00:37:32.582Z,79.80
2019-02-27T00:40:00.289Z,78.89
2019-02-27T00:42:33.588Z,78.05
2019-02-27T00:44:57.345Z,78.20
2019-02-27T00:47:25.005Z,77.61
2019-02-27T00:49:52.660Z,78.65
2019-02-27T00:52:20.317Z,78.89
2019-02-27T00:54:47.982Z,79.19
2019-02-27T00:57:20.562Z,79.03
2019-02-27T00:59:44.999Z,80.09
2019-02-27T01:02:12.653Z,81.91
2019-02-27T01:04:40.317Z,81.51
2019-02-27T01:07:07.975Z,81.56
2019-02-27T01:09:37.258Z,80.66
2019-02-27T01:12:04.993Z,80.11
2019-02-27T01:14:36.941Z,81.14
2019-02-27T01:17:02.040Z,81.07
2019-02-27T01:19:29.697Z,81.73
2019-02-27T01:21:57.344Z,80.71
2019-02-27T01:24:25.008Z,80.39
2019-02-27T01:26:52.673Z,79.99
2019-02-27T01:29:20.330Z,80.50
2019-02-27T01:31:47.971Z,81.37
2019-02-27T01:34:15.637Z,81.47
2019-02-27T01:36:43.280Z,81.28
2019-02-27T01:39:11.383Z,80.87
2019-02-27T01:41:39.730Z,80.64
2019-02-27T01:44:07.386Z,81.69
2019-02-27T01:46:35.036Z,81.35
2019-02-27T01:49:02.692Z,80.88
2019-02-27T01:51:30.357Z,81.52
2019-02-27T01:53:58.004Z,81.83
2019-02-27T01:56:28.928Z,81.37
2019-02-27T01:58:55.037Z,81.03
2019-02-27T02:01:29.749Z,81.22
2019-02-27T02:03:53.751Z,81.34
2019-02-27T02:06:21.400Z,81.33
2019-02-27T02:08:49.054Z,81.78
2019-02-27T02:11:16.727Z,82.42
2019-02-27T02:13:47.992Z,82.90
2019-02-27T02:16:13.733Z,82.68
2019-02-27T02:18:41.383Z,82.27
2019-02-27T02:21:09.045Z,81.75
2019-02-27T02:23:36.714Z,82.37
2019-02-27T02:26:04.375Z,83.01
2019-02-27T02:28:32.035Z,82.83
2019-02-27T02:31:04.869Z,83.09
2019-02-27T02:33:30.393Z,82.19
2019-02-27T02:35:58.321Z,81.63
2019-02-27T02:38:25.970Z,82.10
2019-02-27T02:40:53.628Z,83.54
2019-02-27T02:43:21.293Z,84.18
2019-02-27T02:45:48.947Z,83.75
2019-02-27T02:48:16.610Z,83.28
2019-02-27T02:50:44.279Z,83.95
2019-02-27T02:53:11.931Z,84.00
2019-02-27T02:55:39.591Z,83.77
2019-02-27T02:58:07.767Z,83.91
2019-02-27T03:00:39.099Z,83.68
2019-02-27T03:03:05.976Z,83.71
2019-02-27T03:05:33.639Z,83.70
2019-02-27T03:08:01.321Z,83.35
2019-02-27T03:10:29.054Z,82.75
2019-02-27T03:12:56.722Z,82.36
2019-02-27T03:15:28.455Z,82.27
2019-02-27T03:17:54.997Z,83.87
2019-02-27T03:20:23.002Z,85.01
2019-02-27T03:22:50.655Z,84.71
2019-02-27T03:25:18.402Z,83.11
2019-02-27T03:27:46.061Z,82.35
2019-02-27T03:30:13.740Z,82.38
2019-02-27T03:32:43.611Z,82.43
2019-02-27T03:35:10.779Z,82.34
2019-02-27T03:37:38.448Z,82.19
2019-02-27T03:40:10.672Z,83.80
2019-02-27T03:42:35.480Z,85.05
2019-02-27T03:45:03.143Z,85.11
2019-02-27T03:47:30.811Z,85.32
2019-02-27T03:49:58.467Z,85.66
2019-02-27T03:52:26.143Z,85.35
2019-02-27T03:54:57.092Z,84.94
2019-02-27T03:57:23.170Z,85.39
2019-02-27T03:59:50.846Z,84.41
2019-02-27T04:02:18.509Z,83.36
2019-02-27T04:04:46.166Z,83.52
2019-02-27T04:07:13.832Z,83.67
2019-02-27T04:09:41.499Z,83.54
2019-02-27T04:12:09.155Z,84.19
2019-02-27T04:14:40.817Z,84.78
2019-02-27T04:17:07.526Z,84.89
2019-02-27T04:19:39.068Z,84.27
2019-02-27T04:22:04.930Z,84.16
2019-02-27T04:24:32.580Z,84.10
2019-02-27T04:27:00.249Z,84.23
2019-02-27T04:29:27.918Z,85.12
2019-02-27T04:31:55.586Z,85.61
2019-02-27T04:34:23.237Z,85.87
2019-02-27T04:36:50.926Z,85.75
2019-02-27T04:39:18.598Z,85.50
2019-02-27T04:41:46.270Z,86.27
2019-02-27T04:44:13.930Z,86.24
2019-02-27T04:46:41.598Z,86.60
2019-02-27T04:49:09.264Z,86.68
2019-02-27T04:51:36.935Z,86.71
2019-02-27T04:54:07.296Z,86.61
2019-02-27T04:56:34.058Z,86.37
2019-02-27T04:59:01.725Z,85.82
2019-02-27T05:01:29.387Z,85.30
2019-02-27T05:04:01.209Z,85.00
2019-02-27T05:06:26.423Z,84.81
2019-02-27T05:08:54.083Z,84.69
2019-02-27T05:11:21.757Z,84.73
2019-02-27T05:13:53.966Z,84.89
2019-02-27T05:16:18.786Z,84.94
2019-02-27T05:18:46.451Z,84.95
2019-02-27T05:21:14.117Z,84.96
2019-02-27T05:23:41.774Z,84.98
2019-02-27T05:26:09.437Z,84.93
2019-02-27T05:28:37.087Z,85.00
2019-02-27T05:31:04.750Z,85.06
2019-02-27T05:33:35.683Z,85.10
2019-02-27T05:36:01.803Z,85.12
2019-02-27T05:38:29.587Z,85.44
2019-02-27T05:40:59.865Z,85.60
2019-02-27T05:43:26.689Z,85.82
2019-02-27T05:45:54.405Z,85.52
2019-02-27T05:48:22.079Z,85.08
2019-02-27T05:50:49.734Z,84.78
2019-02-27T05:53:17.430Z,84.80
2019-02-27T05:55:45.093Z,84.74
2019-02-27T05:58:12.765Z,84.52
2019-02-27T06:00:40.431Z,84.39
2019-02-27T06:03:08.094Z,84.30
2019-02-27T06:05:36.020Z,84.12
2019-02-27T06:08:04.407Z,83.98
2019-02-27T06:10:32.091Z,83.97
2019-02-27T06:12:59.757Z,84.35
2019-02-27T06:15:28.600Z,84.53
2019-02-27T06:17:56.985Z,84.66
2019-02-27T06:20:24.649Z,84.84
2019-02-27T06:22:52.316Z,84.72
2019-02-27T06:25:23.228Z,84.52
2019-02-27T06:27:49.457Z,84.60
2019-02-27T06:30:17.116Z,84.47
2019-02-27T06:32:44.780Z,84.61
2019-02-27T06:35:12.438Z,84.39
2019-02-27T06:37:40.106Z,84.44
2019-02-27T06:40:08.085Z,84.28
2019-02-27T06:42:35.813Z,83.98
2019-02-27T06:45:03.470Z,83.45
2019-02-27T06:47:33.034Z,83.29
2019-02-27T06:50:00.495Z,83.38
2019-02-27T06:52:28.158Z,83.30
2019-02-27T06:54:55.814Z,82.98
2019-02-27T06:57:23.494Z,82.41
2019-02-27T06:59:51.150Z,82.57
2019-02-27T07:02:19.147Z,82.38
2019-02-27T07:04:48.191Z,81.88
2019-02-27T07:07:15.855Z,81.67
2019-02-27T07:09:45.823Z,81.42
2019-02-27T07:12:13.170Z,80.81
2019-02-27T07:14:40.826Z,80.44
2019-02-27T07:17:08.494Z,80.23
2019-02-27T07:19:36.155Z,79.83
2019-02-27T07:22:06.253Z,79.37
2019-02-27T07:24:33.840Z,78.93
2019-02-27T07:27:01.534Z,78.16
2019-02-27T07:29:29.189Z,77.94
2019-02-27T07:31:57.242Z,77.23
2019-02-27T07:34:25.103Z,76.97
2019-02-27T07:36:52.774Z,76.13
2019-02-27T07:39:20.445Z,76.09
2019-02-27T07:41:48.102Z,75.40
2019-02-27T07:44:15.761Z,75.25
2019-02-27T07:46:43.424Z,74.57
2019-02-27T07:49:11.090Z,73.96
2019-02-27T07:51:38.755Z,73.60
2019-02-27T07:54:06.426Z,72.85
2019-02-27T07:56:34.074Z,71.82
2019-02-27T07:59:01.742Z,71.79
2019-02-27T08:01:29.394Z,71.62
2019-02-27T08:03:57.055Z,71.35
2019-02-27T08:06:24.709Z,71.53
2019-02-27T08:08:56.980Z,70.38
2019-02-27T08:11:21.712Z,69.69
2019-02-27T08:13:49.368Z,70.00
2019-02-27T08:16:17.025Z,69.22
2019-02-27T08:18:44.674Z,68.13
2019-02-27T08:21:12.329Z,68.93
2019-02-27T08:23:39.979Z,67.74
2019-02-27T08:26:07.627Z,68.27
2019-02-27T08:28:35.297Z,67.35
2019-02-27T08:31:02.944Z,68.11
2019-02-27T08:33:30.582Z,67.03
2019-02-27T08:35:58.247Z,67.06
2019-02-27T08:38:25.933Z,66.64
2019-02-27T08:40:57.518Z,66.67
2019-02-27T08:43:22.943Z,65.90
2019-02-27T08:45:50.605Z,65.62
2019-02-27T08:48:18.257Z,65.04
2019-02-27T08:50:45.913Z,64.91
2019-02-27T08:53:13.567Z,65.00
2019-02-27T08:55:41.222Z,64.45
2019-02-27T08:58:08.868Z,64.13
2019-02-27T09:00:36.528Z,63.07
2019-02-27T09:03:04.204Z,63.16
2019-02-27T09:05:31.851Z,62.60
2019-02-27T09:07:59.517Z,62.05
2019-02-27T09:10:30.457Z,61.22
2019-02-27T09:13:04.964Z,60.82
2019-02-27T09:15:25.883Z,60.37
2019-02-27T09:17:53.538Z,59.98
2019-02-27T09:20:21.199Z,59.44
2019-02-27T09:22:48.844Z,59.48
2019-02-27T09:25:16.505Z,58.29
2019-02-27T09:27:44.195Z,57.62
2019-02-27T09:30:11.961Z,57.39
2019-02-27T09:32:39.681Z,56.67
2019-02-27T09:35:07.339Z,54.87
2019-02-27T09:37:34.999Z,55.48
2019-02-27T09:40:05.681Z,53.67
2019-02-27T09:42:32.039Z,53.81
2019-02-27T09:44:59.704Z,53.16
2019-02-27T09:47:27.360Z,52.54
2019-02-27T09:49:55.024Z,52.74
2019-02-27T09:52:23.760Z,52.31
2019-02-27T09:54:51.532Z,52.28
2019-02-27T09:57:19.194Z,51.82
2019-02-27T09:59:46.862Z,52.50
2019-02-27T10:02:14.521Z,51.92
2019-02-27T10:04:42.193Z,51.58
2019-02-27T10:07:09.868Z,51.80
2019-02-27T10:09:37.539Z,50.72
2019-02-27T10:12:05.201Z,50.35
2019-02-27T10:14:32.867Z,49.57
2019-02-27T10:17:00.523Z,50.10
2019-02-27T10:19:28.229Z,49.17
2019-02-27T10:21:55.959Z,49.61
2019-02-27T10:24:23.624Z,49.38
2019-02-27T10:26:53.599Z,48.61
2019-02-27T10:29:20.655Z,48.44
2019-02-27T10:31:48.325Z,47.86
2019-02-27T10:34:17.599Z,47.22
2019-02-27T10:36:45.415Z,45.83
2019-02-27T10:39:13.405Z,46.56
2019-02-27T10:41:41.088Z,45.36
2019-02-27T10:44:08.769Z,44.52
2019-02-27T10:46:36.425Z,43.79
2019-02-27T10:49:04.155Z,44.45
2019-02-27T10:51:31.810Z,42.77
2019-02-27T10:54:02.329Z,42.72
2019-02-27T10:56:28.841Z,42.50
2019-02-27T10:58:56.499Z,44.94
2019-02-27T11:01:24.167Z,42.28
2019-02-27T11:03:51.831Z,42.32
2019-02-27T11:06:19.556Z,41.79
2019-02-27T11:08:47.345Z,42.87
2019-02-27T11:11:16.442Z,40.66
2019-02-27T11:13:44.386Z,40.03
2019-02-27T11:16:12.061Z,40.36
2019-02-27T11:18:39.731Z,40.69
2019-02-27T11:21:07.416Z,40.54
2019-02-27T11:23:35.181Z,39.90
2019-02-27T11:26:02.851Z,39.48
2019-02-27T11:28:30.523Z,39.98
2019-02-27T11:30:58.227Z,39.24
2019-02-27T11:33:26.216Z,40.43
2019-02-27T11:35:54.019Z,39.86
2019-02-27T11:38:24.637Z,39.75
2019-02-27T11:40:51.057Z,39.53
2019-02-27T11:43:18.729Z,38.10
2019-02-27T11:45:46.402Z,38.64
2019-02-27T11:48:14.058Z,38.72
2019-02-27T11:50:41.724Z,38.26
2019-02-27T11:53:09.370Z,38.18
2019-02-27T11:55:37.036Z,38.75
2019-02-27T11:58:05.564Z,39.05
2019-02-27T12:00:33.928Z,39.16
2019-02-27T12:03:01.583Z,38.66
2019-02-27T12:05:33.855Z,40.13
2019-02-27T12:07:58.666Z,39.62
2019-02-27T12:10:26.407Z,39.63
2019-02-27T12:12:59.572Z,41.60
2019-02-27T12:15:23.451Z,39.94
2019-02-27T12:17:51.142Z,40.86
2019-02-27T12:20:18.999Z,38.36
2019-02-27T12:22:46.768Z,38.07
2019-02-27T12:25:14.507Z,37.71
2019-02-27T12:27:49.188Z,38.06
2019-02-27T12:30:11.595Z,39.71
2019-02-27T12:32:39.463Z,39.29
2019-02-27T12:35:08.237Z,39.41
2019-02-27T12:37:36.473Z,39.24
2019-02-27T12:40:04.134Z,40.22
2019-02-27T12:42:37.267Z,39.80
2019-02-27T12:45:01.172Z,39.80
2019-02-27T12:47:28.839Z,37.08
2019-02-27T12:49:56.500Z,37.00
2019-02-27T12:52:24.167Z,36.17
2019-02-27T12:54:51.838Z,37.46
2019-02-27T12:57:19.498Z,37.43
2019-02-27T12:59:47.140Z,37.56
2019-02-27T13:02:14.813Z,38.24
2019-02-27T13:04:42.463Z,38.38
2019-02-27T13:07:10.726Z,39.14
2019-02-27T13:09:38.974Z,39.09
2019-02-27T13:12:06.643Z,39.69
2019-02-27T13:14:34.324Z,38.46
2019-02-27T13:17:02.005Z,37.58
2019-02-27T13:19:29.652Z,37.58
2019-02-27T13:21:57.311Z,38.29
2019-02-27T13:24:24.968Z,38.82
2019-02-27T13:26:52.639Z,39.58
2019-02-27T13:29:21.389Z,37.31
2019-02-27T13:31:51.501Z,36.72
2019-02-27T13:34:18.635Z,36.41
2019-02-27T13:36:46.292Z,36.22
2019-02-27T13:39:13.956Z,37.25
2019-02-27T13:41:44.733Z,38.15
2019-02-27T13:44:10.986Z,37.17
2019-02-27T13:46:38.639Z,36.52
2019-02-27T13:49:06.303Z,36.98
2019-02-27T13:51:37.243Z,37.13
2019-02-27T13:54:03.358Z,37.18
2019-02-27T13:56:31.039Z,37.10
2019-02-27T13:58:58.728Z,37.66
2019-02-27T14:01:28.540Z,38.77
2019-02-27T14:03:55.769Z,39.54
2019-02-27T14:06:23.460Z,39.08
2019-02-27T14:08:51.114Z,39.50
2019-02-27T14:11:18.781Z,38.94
2019-02-27T14:13:46.427Z,39.73
2019-02-27T14:16:14.344Z,39.70
2019-02-27T14:18:42.231Z,40.02
2019-02-27T14:21:10.053Z,40.47
2019-02-27T14:23:37.792Z,40.81
2019-02-27T14:26:06.719Z,41.62
2019-02-27T14:28:34.807Z,40.44
2019-02-27T14:31:02.531Z,40.88
2019-02-27T14:33:30.280Z,39.70
2019-02-27T14:35:57.930Z,40.28
2019-02-27T14:38:25.595Z,40.94
2019-02-27T14:40:53.270Z,40.52
2019-02-27T14:43:20.979Z,41.04
2019-02-27T14:45:50.649Z,42.18
2019-02-27T14:48:21.075Z,41.53
2019-02-27T14:50:47.372Z,42.22
2019-02-27T14:53:16.530Z,41.66
2019-02-27T14:55:44.471Z,41.75
2019-02-27T14:58:12.134Z,42.66
2019-02-27T15:00:40.881Z,41.27
2019-02-27T15:03:08.861Z,42.05
2019-02-27T15:05:37.100Z,42.70
2019-02-27T15:08:05.988Z,42.25
2019-02-27T15:10:33.636Z,42.60
2019-02-27T15:13:01.283Z,41.74
2019-02-27T15:15:29.085Z,42.82
2019-02-27T15:17:56.837Z,42.02
2019-02-27T15:20:24.505Z,42.89
2019-02-27T15:22:52.708Z,43.78
2019-02-27T15:25:21.315Z,43.32
2019-02-27T15:27:48.966Z,42.52
2019-02-27T15:30:16.707Z,43.83
2019-02-27T15:32:44.647Z,43.98
2019-02-27T15:35:12.293Z,43.54
2019-02-27T15:37:39.951Z,44.27
2019-02-27T15:40:07.612Z,44.44
2019-02-27T15:42:35.286Z,43.91
2019-02-27T15:45:03.201Z,43.91
2019-02-27T15:47:33.541Z,45.03
2019-02-27T15:50:02.523Z,45.20
2019-02-27T15:52:29.719Z,45.43
2019-02-27T15:54:59.184Z,45.88
2019-02-27T15:57:26.869Z,47.24
2019-02-27T15:59:54.519Z,46.36
2019-02-27T16:02:22.166Z,48.05
2019-02-27T16:04:55.144Z,48.59
2019-02-27T16:07:19.213Z,48.26
2019-02-27T16:09:47.312Z,48.18
2019-02-27T16:12:15.120Z,49.20
2019-02-27T16:14:43.661Z,50.15
2019-02-27T16:17:11.597Z,50.61
2019-02-27T16:19:42.107Z,50.70
2019-02-27T16:22:08.732Z,51.49
2019-02-27T16:24:36.466Z,51.49
2019-02-27T16:27:04.192Z,52.28
2019-02-27T16:29:31.841Z,53.58
2019-02-27T16:31:59.478Z,53.10
2019-02-27T16:34:29.591Z,53.93
2019-02-27T16:36:56.502Z,54.17
2019-02-27T16:39:24.155Z,55.32
2019-02-27T16:41:51.828Z,55.83
2019-02-27T16:44:22.022Z,54.61
2019-02-27T16:46:48.876Z,54.96
2019-02-27T16:49:16.533Z,54.87
2019-02-27T16:51:44.193Z,53.88
2019-02-27T16:54:11.839Z,53.73
2019-02-27T16:56:39.500Z,54.38
2019-02-27T16:59:08.596Z,54.42
2019-02-27T17:01:36.573Z,55.34
2019-02-27T17:04:04.228Z,55.51
2019-02-27T17:06:31.888Z,55.78
2019-02-27T17:08:59.553Z,55.91
2019-02-27T17:11:29.458Z,56.73
2019-02-27T17:13:57.753Z,56.99
2019-02-27T17:16:25.617Z,56.39
2019-02-27T17:18:53.267Z,57.33
2019-02-27T17:21:22.664Z,58.17
2019-02-27T17:23:50.286Z,58.59
2019-02-27T17:26:17.939Z,59.15
2019-02-27T17:28:45.611Z,60.71
2019-02-27T17:31:13.252Z,59.82
2019-02-27T17:33:40.912Z,59.46
2019-02-27T17:36:08.576Z,59.11
2019-02-27T17:38:36.233Z,60.62
2019-02-27T17:41:03.888Z,60.82
2019-02-27T17:43:31.534Z,62.40
2019-02-27T17:45:59.201Z,62.18
2019-02-27T17:48:26.856Z,61.73
2019-02-27T17:50:54.509Z,62.91
2019-02-27T17:53:22.794Z,62.96
2019-02-27T17:55:51.199Z,63.47
2019-02-27T17:58:18.847Z,64.70
2019-02-27T18:00:49.961Z,64.19
2019-02-27T18:03:16.691Z,64.79
2019-02-27T18:05:44.334Z,64.52
2019-02-27T18:08:15.881Z,65.83
2019-02-27T18:10:41.427Z,64.54
2019-02-27T18:13:09.075Z,63.76
2019-02-27T18:15:36.728Z,63.71
2019-02-27T18:18:07.553Z,64.10
2019-02-27T18:20:33.716Z,63.70
2019-02-27T18:23:01.372Z,64.23
2019-02-27T18:25:29.030Z,64.34
2019-02-27T18:27:59.605Z,64.13
2019-02-27T18:30:26.048Z,64.53
2019-02-27T18:32:53.710Z,64.63
2019-02-27T18:35:21.359Z,65.68
2019-02-27T18:37:53.300Z,66.94
2019-02-27T18:40:18.378Z,66.42
2019-02-27T18:42:46.100Z,67.05
2019-02-27T18:45:15.267Z,65.84
2019-02-27T18:47:43.105Z,67.77
2019-02-27T18:50:10.760Z,66.69
2019-02-27T18:52:39.041Z,68.55
2019-02-27T18:55:06.843Z,68.51
2019-02-27T18:57:34.495Z,69.53
2019-02-27T19:00:02.468Z,68.16
2019-02-27T19:02:30.182Z,67.60
2019-02-27T19:04:57.825Z,69.85
2019-02-27T19:07:25.474Z,70.19
2019-02-27T19:09:53.127Z,69.32
2019-02-27T19:12:25.433Z,69.25
2019-02-27T19:14:50.132Z,68.36
2019-02-27T19:17:17.780Z,68.70
2019-02-27T19:19:48.156Z,69.64
2019-02-27T19:22:14.780Z,69.90
2019-02-27T19:24:42.441Z,69.52
2019-02-27T19:27:10.100Z,71.32
2019-02-27T19:29:37.764Z,70.88
2019-02-27T19:32:05.404Z,69.96
2019-02-27T19:34:33.122Z,70.42
2019-02-27T19:37:02.602Z,71.44
2019-02-27T19:39:30.139Z,70.75
2019-02-27T19:41:57.792Z,71.74
2019-02-27T19:44:28.575Z,71.05
2019-02-27T19:46:54.787Z,70.68
2019-02-27T19:49:22.436Z,70.40
2019-02-27T19:51:54.561Z,71.15
2019-02-27T19:54:19.471Z,72.46
2019-02-27T19:56:47.114Z,73.18
2019-02-27T19:59:14.766Z,72.40
2019-02-27T20:01:47.028Z,71.27
2019-02-27T20:04:12.828Z,70.67
2019-02-27T20:06:40.642Z,72.08
2019-02-27T20:09:08.345Z,73.24
2019-02-27T20:11:40.075Z,73.53
2019-02-27T20:14:05.440Z,73.57
2019-02-27T20:16:33.104Z,73.87
2019-02-27T20:19:00.763Z,73.62
2019-02-27T20:21:28.413Z,74.05
2019-02-27T20:24:01.171Z,72.98
2019-02-27T20:26:25.801Z,73.17
2019-02-27T20:28:53.451Z,74.33
2019-02-27T20:31:21.261Z,74.15
2019-02-27T20:33:48.982Z,74.07
2019-02-27T20:36:16.641Z,75.29
2019-02-27T20:38:44.287Z,75.67
2019-02-27T20:41:11.946Z,76.16
2019-02-27T20:43:39.610Z,76.76
2019-02-27T20:46:07.424Z,76.58
2019-02-27T20:48:35.745Z,76.81
2019-02-27T20:51:06.022Z,75.55
2019-02-27T20:53:33.789Z,75.23
2019-02-27T20:56:03.106Z,76.53
2019-02-27T20:58:30.838Z,76.53
2019-02-27T21:00:58.567Z,77.98
2019-02-27T21:03:27.357Z,76.62
2019-02-27T21:05:55.763Z,76.34
2019-02-27T21:08:23.427Z,75.73
2019-02-27T21:10:54.876Z,76.88
2019-02-27T21:13:20.434Z,78.03
2019-02-27T21:15:48.096Z,78.14
2019-02-27T21:18:15.755Z,77.58
2019-02-27T21:20:45.159Z,78.69
2019-02-27T21:23:12.795Z,79.70
2019-02-27T21:25:40.449Z,79.02
2019-02-27T21:28:08.095Z,79.64
2019-02-27T21:30:35.755Z,78.98
2019-02-27T21:33:03.420Z,79.55
2019-02-27T21:35:31.104Z,79.02
2019-02-27T21:37:58.785Z,79.21
2019-02-27T21:40:26.449Z,80.35
2019-02-27T21:42:54.096Z,79.11
2019-02-27T21:45:21.766Z,79.50
2019-02-27T21:47:51.930Z,79.71
2019-02-27T21:50:18.785Z,79.67
2019-02-27T21:52:46.427Z,81.21
2019-02-27T21:55:14.085Z,80.34
2019-02-27T21:57:41.817Z,80.26
2019-02-27T22:00:11.371Z,79.70
2019-02-27T22:02:39.169Z,81.25
2019-02-27T22:05:06.823Z,81.32
2019-02-27T22:07:34.474Z,81.51
2019-02-27T22:10:02.126Z,80.53
2019-02-27T22:12:32.375Z,81.43
2019-02-27T22:15:00.279Z,81.09
2019-02-27T22:17:28.167Z,82.60
2019-02-27T22:19:55.832Z,82.44
2019-02-27T22:22:23.472Z,82.72
2019-02-27T22:24:52.290Z,81.21
2019-02-27T22:27:20.481Z,81.70
2019-02-27T22:29:48.141Z,82.46
2019-02-27T22:32:15.797Z,81.32
2019-02-27T22:34:43.440Z,81.36
2019-02-27T22:37:11.088Z,81.95
2019-02-27T22:39:38.740Z,81.21
2019-02-27T22:42:06.394Z,82.55
2019-02-27T22:44:34.057Z,82.92
2019-02-27T22:47:01.718Z,82.45
2019-02-27T22:49:31.948Z,82.79
2019-02-27T22:51:58.727Z,82.53
2019-02-27T22:54:26.363Z,82.60
2019-02-27T22:56:54.015Z,83.52
2019-02-27T22:59:21.658Z,83.08
2019-02-27T23:01:50.652Z,83.14
2019-02-27T23:04:18.633Z,82.99
2019-02-27T23:06:47.175Z,82.49
2019-02-27T23:09:15.707Z,82.48
2019-02-27T23:11:43.440Z,83.66
2019-02-27T23:14:11.097Z,83.03
2019-02-27T23:16:38.756Z,83.09
2019-02-27T23:19:06.438Z,83.51
2019-02-27T23:21:34.071Z,83.27
2019-02-27T23:24:01.720Z,83.64
2019-02-27T23:26:29.551Z,83.35
2019-02-27T23:28:57.205Z,83.59
2019-02-27T23:31:24.843Z,83.42
2019-02-27T23:33:52.521Z,83.78
2019-02-27T23:36:21.885Z,83.43
2019-02-27T23:38:49.549Z,83.09
2019-02-27T23:41:17.192Z,83.39
2019-02-27T23:43:44.839Z,82.83
2019-02-27T23:46:12.498Z,83.70
2019-02-27T23:48:40.136Z,83.16
2019-02-27T23:51:07.784Z,83.55
2019-02-27T23:53:35.430Z,83.43
2019-02-27T23:56:03.084Z,83.37
2019-02-27T23:58:30.725Z,83.53
